Flight Track Log - Related Links

Times and Time Zones

All times are in EDT time to prevent confusion due to time zone crossing. See the DAL2390 flight status page for this flight to view local times or setup timezone preferences in your user account.

Time Position Orientation Groundspeed Altitude Reporting Facility
EDT Latitude Longitude Course Direction KTS MPH feet Rate Location/Type
Tue 08:35:04 PM 44.9167 -93.2500 66° East 174 200 2,500  Level Minneapolis TRACON
Tue 08:35:36 PM 44.9414 -93.2539 354° North 194 223 3,100 1,915 Climbing Minneapolis Center
Tue 08:36:38 PM 44.9947 -93.2003 35° Northeast 251 289 5,500 1,935 Climbing Minneapolis Center
Tue 08:37:00 PM 45.0147 -92.7081 70° East  Level FlightAware Approximate
Tue 08:37:40 PM 45.0478 -93.1178 48° Northeast 277 319 7,100  Level Minneapolis Center
Tue 08:38:00 PM 45.0662 -92.5392 66° East  Level FlightAware Approximate
Tue 08:38:42 PM 45.0933 -93.0172 57° Northeast 300 345 10,400  Level Minneapolis Center
Tue 08:39:00 PM 45.1044 -92.3690 66° East  Level FlightAware Approximate
Tue 08:39:44 PM 45.1544 -92.8772 58° Northeast 361 415 11,800  Level Minneapolis Center
Tue 08:40:00 PM 45.1564 -92.2002 66° East  Level FlightAware Approximate
Tue 08:40:46 PM 45.2117 -92.7414 59° Northeast 398 458 13,900  Level Minneapolis Center
Tue 08:41:48 PM 45.2631 -92.5978 63° Northeast 406 467 16,000 1,935 Climbing Minneapolis Center
Tue 08:42:50 PM 45.2842 -92.4272 80° East 432 497 17,900 1,839 Climbing Minneapolis Center
Tue 08:43:52 PM 45.3081 -92.2533 79° East 443 510 19,800 1,680 Climbing Minneapolis Center
Tue 08:44:55 PM 45.3328 -92.0769 79° East 450 518 21,400 1,632 Climbing Minneapolis Center
Tue 08:45:57 PM 45.3606 -91.8575 80° East 466 536 23,200 1,500 Climbing Minneapolis Center
Tue 08:46:59 PM 45.3458 -91.6636 96° East 486 559 24,500 1,645 Climbing Minneapolis Center
Tue 08:48:01 PM 45.3322 -91.4706 96° East 488 562 26,600 2,032 Climbing Minneapolis Center
Tue 08:49:03 PM 45.3181 -91.2853 96° East 484 557 28,700 1,597 Climbing Minneapolis Center
Tue 08:50:05 PM 45.3053 -91.1086 96° East 467 537 29,900 1,113 Climbing Minneapolis Center
Tue 08:51:07 PM 45.2889 -90.8883 96° East 466 536 31,000 528 Climbing Minneapolis Center
Tue 08:52:10 PM 45.2756 -90.7006 96° East 471 542 31,000  Level Minneapolis Center
Tue 08:53:12 PM 45.2597 -90.5111 97° East 481 554 31,000  Level Minneapolis Center
Tue 08:54:14 PM 45.2436 -90.3256 97° East 481 554 31,000  Level Minneapolis Center
Tue 08:55:16 PM 45.2281 -90.1386 97° East 480 552 31,000  Level Minneapolis Center
Tue 08:56:18 PM 45.2125 -89.9517 97° East 480 552 31,000  Level Minneapolis Center
Tue 08:57:20 PM 45.1925 -89.7247 97° East 481 554 31,000  Level Minneapolis Center
Tue 08:58:22 PM 45.1750 -89.5344 97° East 486 559 31,000  Level Minneapolis Center
Tue 08:59:25 PM 45.1578 -89.3419 97° East 491 565 31,000  Level Minneapolis Center
Tue 09:00:27 PM 45.1403 -89.1483 97° East 496 571 31,000  Level Minneapolis Center
Tue 09:01:29 PM 45.1222 -88.9575 98° East 495 570 31,000  Level Minneapolis Center
Tue 09:02:31 PM 45.0992 -88.7261 98° East 495 570 31,000  Level Minneapolis Center
Tue 09:03:33 PM 45.0803 -88.5472 98° East 495 570 31,000  Level Minneapolis Center
Tue 09:04:35 PM 45.0625 -88.3553 97° East 494 568 31,000  Level Minneapolis Center
Tue 09:05:38 PM 45.0417 -88.1656 99° East 494 568 31,000  Level Minneapolis Center
Tue 09:06:40 PM 45.0175 -87.9364 98° East 493 567 31,000  Level Minneapolis Center
Tue 09:07:42 PM 45.0000 -87.7436 97° East 493 567 31,000  Level Minneapolis Center
Tue 09:08:44 PM 44.9797 -87.5528 98° East 493 567 31,000  Level Minneapolis Center
Tue 09:09:46 PM 44.9583 -87.3633 99° East 493 567 31,000  Level Minneapolis Center
Tue 09:10:48 PM 44.9381 -87.1772 99° East 485 558 31,000  Level Minneapolis Center
Tue 09:11:50 PM 44.9169 -86.9908 99° East 484 557 31,000  Level Minneapolis Center
Tue 09:12:52 PM 44.8911 -86.7658 99° East 484 557 31,000  Level Minneapolis Center
Tue 09:13:55 PM 44.8681 -86.5658 99° East 488 562 31,000  Level Minneapolis Center
Tue 09:14:57 PM 44.8456 -86.3750 99° East 490 564 31,000  Level Minneapolis Center
Tue 09:15:59 PM 44.8225 -86.1814 99° East 495 570 31,000  Level Minneapolis Center
Tue 09:17:01 PM 44.7997 -85.9919 100° East 495 570 31,000  Level Minneapolis Center
Tue 09:18:03 PM 44.7758 -85.8008 100° East 494 568 31,000  Level Minneapolis Center
Tue 09:19:05 PM 44.7511 -85.6061 100° East 494 568 31,000  Level Minneapolis Center
Tue 09:20:07 PM 44.7278 -85.4194 100° East 490 564 31,000  Level Minneapolis Center
Tue 09:21:09 PM 44.6986 -85.1922 100° East 490 564 31,000  Level Minneapolis Center
Tue 09:22:12 PM 44.6742 -85.0039 100° East 490 564 31,000  Level Minneapolis Center
Tue 09:23:14 PM 44.6492 -84.8183 101° East 490 564 31,000  Level Minneapolis Center
Tue 09:24:16 PM 44.6247 -84.6328 100° East 486 559 31,000  Level Minneapolis Center
Tue 09:25:18 PM 44.5992 -84.4461 101° East 486 559 31,000  Level Minneapolis Center
Tue 09:26:20 PM 44.5736 -84.2625 101° East 486 559 31,000  Level Minneapolis Center
Tue 09:27:22 PM 44.5422 -84.0397 101° East 485 558 31,000  Level Minneapolis Center
Tue 09:28:24 PM 44.5167 -83.8533 101° East 485 558 31,000  Level Minneapolis Center
Tue 09:29:26 PM 44.4892 -83.6650 102° East 491 565 31,000  Level Minneapolis Center
Tue 09:30:28 PM 44.4625 -83.4794 101° East 491 565 31,000  Level Minneapolis Center
Tue 09:31:30 PM 44.4228 -83.3000 107° East 489 563 31,000  Level Minneapolis Center
Tue 09:32:34 PM 44.3500 -83.1000 117° Southeast 470 541 31,000  Level Toronto Center
Tue 09:33:34 PM 44.2833 -82.9167 117° Southeast 470 541 31,000  Level Toronto Center
Tue 09:34:34 PM 44.2333 -82.7500 113° Southeast 480 552 31,000  Level Toronto Center
Tue 09:35:34 PM 44.1833 -82.5833 113° Southeast 480 552 31,000  Level Toronto Center
Tue 09:36:34 PM 44.1333 -82.4167 113° Southeast 480 552 31,000  Level Toronto Center
Tue 09:37:34 PM 44.0667 -82.2333 117° Southeast 480 552 31,000  Level Toronto Center
Tue 09:38:34 PM 44.0167 -82.0667 113° Southeast 480 552 31,000  Level Toronto Center
Tue 09:39:34 PM 43.9833 -81.9000 105° East 480 552 31,000  Level Toronto Center
Tue 09:40:34 PM 43.9333 -81.7333 113° Southeast 480 552 31,000  Level Toronto Center
Tue 09:41:34 PM 43.8833 -81.5500 111° Southeast 480 552 31,000  Level Toronto Center
Tue 09:42:34 PM 43.8167 -81.3833 119° Southeast 480 552 31,000  Level Toronto Center
Tue 09:43:34 PM 43.7833 -81.2000 104° East 480 552 31,000  Level Toronto Center
Tue 09:44:34 PM 43.7667 -81.0167 97° East 490 564 31,000  Level Toronto Center
Tue 09:45:34 PM 43.7500 -80.8333 97° East 500 575 31,000  Level Toronto Center
Tue 09:46:34 PM 43.7333 -80.6500 97° East 500 575 31,000  Level Toronto Center
Tue 09:47:34 PM 43.7167 -80.4667 97° East 490 564 31,000  Level Toronto Center
Tue 09:48:34 PM 43.7000 -80.2833 97° East 490 564 31,000 -100 Level Toronto Center
Tue 09:49:34 PM 43.6667 -80.1000 104° East 490 564 30,800 -500 Descending Toronto Center
Tue 09:50:34 PM 43.6500 -79.9167 97° East 490 564 30,000 -650 Descending Toronto Center
Tue 09:51:34 PM 43.6333 -79.7000 96° East 490 564 29,500 -550 Descending Toronto Center
Tue 09:52:34 PM 43.6000 -79.5333 105° East 500 575 28,900 -700 Descending Toronto Center
Tue 09:53:34 PM 43.5833 -79.3333 96° East 490 564 28,100 -800 Descending Toronto Center
Tue 09:54:34 PM 43.5667 -79.1500 97° East 490 564 27,300 -550 Descending Toronto Center
Tue 09:55:34 PM 43.5333 -78.9667 104° East 500 575 27,000 -150 Descending Toronto Center
Tue 09:56:34 PM 43.5167 -78.7833 97° East 500 575 27,000  Level Toronto Center
Tue 09:57:34 PM 43.5000 -78.5833 96° East 500 575 27,000  Level Toronto Center
Tue 09:58:25 PM 43.4828 -78.4806 103° East 497 572 27,000  Level Cleveland Center
Tue 09:59:27 PM 43.4581 -78.2919 100° East 500 575 27,000 -293 Level Cleveland Center
Tue 10:00:28 PM 43.4289 -78.0708 100° East 492 566 26,400 -1,770 Descending Cleveland Center
Tue 10:01:29 PM 43.4031 -77.8864 101° East 489 563 23,400 -2,878 Descending Cleveland Center
Tue 10:02:31 PM 43.3781 -77.7083 101° East 477 549 20,500 -2,780 Descending Cleveland Center
Tue 10:03:32 PM 43.3542 -77.5383 101° East 456 525 17,700 -2,705 Descending Cleveland Center
Tue 10:04:33 PM 43.3319 -77.3764 101° East 436 502 15,000 -2,634 Descending Cleveland Center
Tue 10:05:35 PM 43.2942 -77.2303 110° East 410 472 12,300 -1,902 Descending Cleveland Center
Tue 10:06:36 PM 43.2367 -77.0992 121° Southeast 405 466 11,100 -634 Descending Cleveland Center
Tue 10:07:38 PM 43.1817 -76.9675 120° Southeast 401 461 11,000 -50 Descending Cleveland Center
Tue 10:08:37 PM 43.1747 -76.8358 94° East 368 423 11,000 -650 Level Boston Center
Tue 10:09:38 PM 43.1711 -76.7200 92° East 335 386 9,700 -1,579 Descending Boston Center
Tue 10:09:53 PM 43.1706 -76.6767 91° East 293 337 9,000 -1,967 Descending Boston Center
Tue 10:10:39 PM 43.1692 -76.6072 92° East 313 360 7,700 -1,967 Descending Boston Center
Tue 10:10:54 PM 43.1683 -76.5647 92° East 291 335 7,000 -1,967 Descending Boston Center
Tue 10:11:40 PM 43.1669 -76.4992 92° East 299 344 5,700 -1,794 Descending Boston Center
Tue 10:12:41 PM 43.1647 -76.3914 92° East 291 335 3,800 -1,289 Descending Boston Center
Tue 10:13:41 PM 43.1592 -76.2636 93° East 287 330 3,100 -821 Descending Boston Center
Tue 10:14:38 PM 43.1064 -76.2408 163° South 162 186 2,200 -974 Descending Boston Center
Tue 10:15:38 PM 43.1061 -76.1794 90° East 149 171 1,200 -1,000 Descending Boston Center

Login

Don't have an account? Register now (free) for customized features, flight alerts, and more!